Time;durP1;ratioP1;P1;durP2;ratioP2;P2;SDS_P1;SDS_P2;PMS_P1;PMS_P2;Temp;Humidity;BMP_temperature;BMP_pressure;BME280_temperature;BME280_humidity;BME280_pressure;Samples;Min_cycle;Max_cycle;Signal;HPM_P1;HPM_P2
2023/05/03 00:01:40;;;;;;;8.27;4.90;;;13.10;99.90;;;;;;5054100;28;20072;-42
2023/05/03 00:04:06;;;;;;;7.25;4.57;;;13.10;99.90;;;;;;5054256;28;20035;-43
2023/05/03 00:06:31;;;;;;;10.13;5.03;;;13.10;99.90;;;;;;5053303;28;20049;-42
2023/05/03 00:08:57;;;;;;;8.35;5.30;;;13.10;99.90;;;;;;5053592;28;20052;-38
2023/05/03 00:11:23;;;;;;;7.55;4.95;;;13.10;99.90;;;;;;5053760;28;20021;-38
2023/05/03 00:13:48;;;;;;;7.05;5.22;;;13.10;99.90;;;;;;5053765;28;20021;-39
2023/05/03 00:16:14;;;;;;;7.50;5.07;;;13.10;99.90;;;;;;5053050;28;20013;-41
2023/05/03 00:18:39;;;;;;;7.97;4.85;;;13.10;99.90;;;;;;5053691;28;20032;-36
2023/05/03 00:21:05;;;;;;;5.93;5.07;;;13.10;99.90;;;;;;5053607;28;20036;-37
2023/05/03 00:23:31;;;;;;;9.23;5.13;;;13.10;99.90;;;;;;5053318;28;20044;-38
2023/05/03 00:25:57;;;;;;;8.05;5.15;;;13.10;99.90;;;;;;5053069;28;20039;-43
2023/05/03 00:28:24;;;;;;;7.60;5.55;;;13.10;99.90;;;;;;5053208;28;20451;-38
2023/05/03 00:30:50;;;;;;;7.28;5.10;;;13.10;99.90;;;;;;5053539;28;20033;-37
2023/05/03 00:33:16;;;;;;;9.77;5.18;;;13.10;99.90;;;;;;5053461;28;20079;-38
2023/05/03 00:35:42;;;;;;;7.20;5.07;;;13.10;99.90;;;;;;5053250;28;20028;-46
2023/05/03 00:38:08;;;;;;;8.55;4.90;;;13.10;99.90;;;;;;5052606;28;20029;-39
2023/05/03 00:40:33;;;;;;;6.57;4.97;;;13.10;99.90;;;;;;5053523;28;20021;-40
2023/05/03 00:43:00;;;;;;;7.32;4.47;;;13.10;99.90;;;;;;5053363;28;20029;-37
2023/05/03 00:45:25;;;;;;;8.57;4.88;;;13.10;99.90;;;;;;5053151;28;20021;-38
2023/05/03 00:47:51;;;;;;;6.35;4.95;;;13.10;99.90;;;;;;5052669;28;20025;-41
2023/05/03 00:50:17;;;;;;;6.38;4.57;;;13.10;99.90;;;;;;5053123;28;20136;-36
2023/05/03 00:52:44;;;;;;;5.90;4.50;;;13.10;99.90;;;;;;5052458;28;20083;-41
2023/05/03 00:55:10;;;;;;;6.40;4.70;;;13.10;99.90;;;;;;5053019;28;20475;-39
2023/05/03 00:57:36;;;;;;;6.97;4.95;;;13.10;99.90;;;;;;5052377;28;20060;-37
2023/05/03 01:00:02;;;;;;;6.97;4.68;;;13.10;99.90;;;;;;5053448;28;20071;-37
2023/05/03 01:02:28;;;;;;;6.35;4.60;;;13.00;99.90;;;;;;5052687;28;20036;-41
2023/05/03 01:04:55;;;;;;;5.93;4.40;;;13.00;99.90;;;;;;5052714;28;20490;-43
2023/05/03 01:07:53;;;;;;;7.30;4.70;;;13.00;99.90;;;;;;5052083;28;20100;-37
2023/05/03 01:10:46;;;;;;;7.00;4.30;;;13.00;99.90;;;;;;5052638;28;20035;-40
2023/05/03 01:13:27;;;;;;;5.28;4.47;;;13.00;99.90;;;;;;5053679;28;20364;-37
2023/05/03 01:16:07;;;;;;;7.22;4.60;;;13.00;99.90;;;;;;5052242;28;20349;-39
2023/05/03 01:18:39;;;;;;;6.97;4.72;;;13.00;99.90;;;;;;5052557;28;20031;-40
2023/05/03 01:21:06;;;;;;;10.55;4.53;;;13.00;99.90;;;;;;5052493;28;20078;-44
2023/05/03 01:23:39;;;;;;;5.88;4.40;;;13.00;99.90;;;;;;5052383;28;20021;-39
2023/05/03 01:26:35;;;;;;;5.78;4.07;;;13.00;99.90;;;;;;5052034;28;20021;-38
2023/05/03 01:29:00;;;;;;;;;;;13.00;99.90;;;;;;5047760;28;20041;-36
2023/05/03 01:31:43;;;;;;;7.97;4.32;;;13.00;99.90;;;;;;5052407;28;19958;-39
2023/05/03 01:34:21;;;;;;;5.65;3.95;;;13.00;99.90;;;;;;5052409;28;20043;-40
2023/05/03 01:36:49;;;;;;;7.25;4.38;;;13.00;99.90;;;;;;5051647;28;20104;-43
2023/05/03 01:39:22;;;;;;;5.13;3.90;;;13.00;99.90;;;;;;5052183;28;20029;-38
2023/05/03 01:41:52;;;;;;;7.70;4.93;;;13.00;99.90;;;;;;5052069;28;20067;-39
2023/05/03 01:44:20;;;;;;;7.47;4.38;;;13.00;99.90;;;;;;5051889;28;20025;-41
2023/05/03 01:46:46;;;;;;;5.13;4.10;;;13.00;99.90;;;;;;5051403;28;20029;-42
2023/05/03 01:49:12;;;;;;;8.27;4.95;;;13.00;99.90;;;;;;5051150;28;20031;-40
2023/05/03 01:51:38;;;;;;;6.50;4.45;;;13.00;99.90;;;;;;5051837;28;20020;-40
2023/05/03 01:54:05;;;;;;;6.28;4.22;;;13.00;99.90;;;;;;5052198;28;20439;-37
2023/05/03 01:56:33;;;;;;;4.95;3.70;;;13.00;99.90;;;;;;5051288;28;20100;-36
2023/05/03 01:58:59;;;;;;;5.50;4.38;;;13.00;99.90;;;;;;5051622;28;20040;-35
2023/05/03 02:01:25;;;;;;;5.30;3.85;;;13.00;99.90;;;;;;5051699;28;20072;-38
2023/05/03 02:03:50;;;;;;;4.15;3.60;;;13.00;99.90;;;;;;5051529;28;20506;-39
2023/05/03 02:06:16;;;;;;;6.80;4.10;;;13.00;99.90;;;;;;5051017;28;20029;-36
2023/05/03 02:08:41;;;;;;;5.32;4.10;;;13.00;99.90;;;;;;5051584;28;20127;-40
2023/05/03 02:11:07;;;;;;;8.20;3.95;;;13.00;99.90;;;;;;5051490;28;20025;-34
2023/05/03 02:13:34;;;;;;;4.40;3.63;;;13.00;99.90;;;;;;5051342;28;20116;-40
2023/05/03 02:15:59;;;;;;;5.80;3.78;;;13.00;99.90;;;;;;5050989;28;20029;-43
2023/05/03 02:18:30;;;;;;;4.85;3.90;;;13.00;99.90;;;;;;5051397;28;20036;-40
2023/05/03 02:20:56;;;;;;;6.45;4.00;;;12.90;99.90;;;;;;5051367;28;20057;-39
2023/05/03 02:23:22;;;;;;;5.80;3.92;;;13.00;99.90;;;;;;5051502;28;20479;-38
2023/05/03 02:25:48;;;;;;;5.63;4.07;;;12.90;99.90;;;;;;5051104;28;20033;-43
2023/05/03 02:28:14;;;;;;;6.20;4.72;;;12.90;99.90;;;;;;5051165;28;20029;-35
2023/05/03 02:30:40;;;;;;;9.60;5.20;;;13.00;99.90;;;;;;5051133;28;20033;-40
2023/05/03 02:33:06;;;;;;;7.55;5.20;;;12.90;99.90;;;;;;5051335;28;20024;-38
2023/05/03 02:35:32;;;;;;;7.60;5.20;;;12.90;99.90;;;;;;5051268;28;20396;-37
2023/05/03 02:37:58;;;;;;;10.75;7.00;;;12.90;99.90;;;;;;5050770;28;20538;-36
2023/05/03 02:40:23;;;;;;;11.52;7.57;;;12.90;99.90;;;;;;5051072;28;20466;-41
2023/05/03 02:42:50;;;;;;;12.88;7.68;;;12.90;99.90;;;;;;5051036;28;20036;-36
2023/05/03 02:45:15;;;;;;;13.55;7.50;;;12.90;99.90;;;;;;5051134;28;20036;-37
2023/05/03 02:47:41;;;;;;;12.02;7.30;;;12.90;99.90;;;;;;5050514;28;20025;-36
2023/05/03 02:50:07;;;;;;;9.65;5.97;;;12.90;99.90;;;;;;5050807;28;20048;-40
2023/05/03 02:52:32;;;;;;;7.70;4.93;;;12.90;99.90;;;;;;5050953;28;20025;-40
2023/05/03 02:54:58;;;;;;;7.45;4.90;;;12.90;99.90;;;;;;5050818;28;20044;-41
2023/05/03 02:57:24;;;;;;;6.70;4.63;;;12.90;99.90;;;;;;5050229;28;20033;-37
2023/05/03 02:59:50;;;;;;;5.95;4.30;;;12.90;99.90;;;;;;5049465;28;20475;-39
2023/05/03 03:02:15;;;;;;;6.63;4.35;;;12.90;99.90;;;;;;5050850;28;20112;-35
2023/05/03 03:04:41;;;;;;;9.85;4.60;;;12.90;99.90;;;;;;5050675;28;20059;-38
2023/05/03 03:07:07;;;;;;;6.00;4.07;;;12.90;99.90;;;;;;5050179;28;20055;-40
2023/05/03 03:09:33;;;;;;;4.82;3.45;;;12.90;99.90;;;;;;5050582;28;20498;-41
2023/05/03 03:12:02;;;;;;;6.13;3.80;;;12.90;99.90;;;;;;5050700;28;20051;-42
2023/05/03 03:14:28;;;;;;;6.20;4.13;;;12.90;99.90;;;;;;5050886;28;20033;-40
2023/05/03 03:16:53;;;;;;;5.18;3.63;;;12.90;99.90;;;;;;5050166;28;20505;-34
2023/05/03 03:19:19;;;;;;;7.70;3.88;;;12.80;99.90;;;;;;5050554;28;20032;-39
2023/05/03 03:21:45;;;;;;;5.55;4.07;;;12.80;99.90;;;;;;5050659;28;20021;-41
2023/05/03 03:24:10;;;;;;;6.50;3.72;;;12.80;99.90;;;;;;5050509;28;20499;-35
2023/05/03 03:26:36;;;;;;;6.55;3.65;;;12.80;99.90;;;;;;5050087;28;20033;-36
2023/05/03 03:29:02;;;;;;;6.05;4.07;;;12.80;99.90;;;;;;5050659;28;20079;-39
2023/05/03 03:31:27;;;;;;;5.25;3.70;;;12.80;99.90;;;;;;5050628;28;20379;-39
2023/05/03 03:33:53;;;;;;;4.63;3.42;;;12.80;99.90;;;;;;5050925;28;20100;-37
2023/05/03 03:36:18;;;;;;;6.10;3.72;;;12.80;99.90;;;;;;5049939;28;20017;-36
2023/05/03 03:38:44;;;;;;;4.90;3.42;;;12.80;99.90;;;;;;5050480;28;20574;-36
2023/05/03 03:41:10;;;;;;;5.00;3.25;;;12.80;99.90;;;;;;5050556;28;20090;-42
2023/05/03 03:43:35;;;;;;;5.53;2.90;;;12.80;99.90;;;;;;5050509;28;20476;-43
2023/05/03 03:46:01;;;;;;;5.30;3.10;;;12.80;99.90;;;;;;5049917;28;20060;-39
2023/05/03 03:48:27;;;;;;;6.45;3.40;;;12.80;99.90;;;;;;5050291;28;20033;-36
2023/05/03 03:50:52;;;;;;;4.97;3.13;;;12.80;99.90;;;;;;5050628;28;20025;-40
2023/05/03 03:53:18;;;;;;;6.30;3.35;;;12.80;99.90;;;;;;5050284;28;20029;-43
2023/05/03 03:55:44;;;;;;;5.07;3.15;;;12.80;99.90;;;;;;5049985;28;20047;-44
2023/05/03 03:58:09;;;;;;;4.53;3.22;;;12.80;99.90;;;;;;5050089;28;20021;-36
2023/05/03 04:00:35;;;;;;;5.38;2.75;;;12.80;99.90;;;;;;5050460;28;20391;-37
2023/05/03 04:03:01;;;;;;;3.70;3.15;;;12.80;99.90;;;;;;5050051;28;20487;-38
2023/05/03 04:05:27;;;;;;;3.47;2.95;;;12.80;99.90;;;;;;5050162;28;20083;-40
2023/05/03 04:07:52;;;;;;;11.15;4.63;;;12.70;99.90;;;;;;5049704;28;20491;-43
2023/05/03 04:10:18;;;;;;;9.32;4.60;;;12.70;99.90;;;;;;5050137;28;20090;-41
2023/05/03 04:12:43;;;;;;;6.13;3.55;;;12.70;99.90;;;;;;5052565;28;20055;-40
2023/05/03 04:15:10;;;;;;;6.35;3.70;;;12.70;99.90;;;;;;5053802;28;20036;-41
2023/05/03 04:17:36;;;;;;;6.00;3.35;;;12.70;99.90;;;;;;5053708;28;20021;-39
2023/05/03 04:20:10;;;;;;;6.38;3.88;;;12.70;99.90;;;;;;5054512;28;20040;-35
2023/05/03 04:22:38;;;;;;;6.10;3.90;;;12.70;99.90;;;;;;5053556;28;20470;-40
2023/05/03 04:25:04;;;;;;;5.88;3.53;;;12.80;99.90;;;;;;5053568;28;20025;-35
2023/05/03 04:27:31;;;;;;;8.30;3.78;;;12.70;99.90;;;;;;5052913;28;20043;-40
2023/05/03 04:29:58;;;;;;;5.18;3.45;;;12.70;99.90;;;;;;5053438;28;20493;-37
2023/05/03 04:32:24;;;;;;;4.72;3.38;;;12.70;99.90;;;;;;5053458;28;20025;-40
2023/05/03 04:34:51;;;;;;;9.15;3.78;;;12.70;99.90;;;;;;5053434;28;20434;-40
2023/05/03 04:37:18;;;;;;;5.30;3.33;;;12.70;99.90;;;;;;5052697;28;20032;-38
2023/05/03 04:39:44;;;;;;;6.45;4.20;;;12.70;99.90;;;;;;5053444;28;20051;-36
2023/05/03 04:42:16;;;;;;;8.93;4.25;;;12.70;99.90;;;;;;5053221;28;20502;-41
2023/05/03 04:44:42;;;;;;;6.35;4.70;;;12.70;99.90;;;;;;5053260;28;20036;-40
2023/05/03 04:47:07;;;;;;;6.60;4.00;;;12.70;99.90;;;;;;5052595;28;20028;-37
2023/05/03 04:49:33;;;;;;;6.13;3.72;;;12.70;99.90;;;;;;5052999;28;20032;-36
2023/05/03 04:52:00;;;;;;;5.35;3.90;;;12.70;99.90;;;;;;5053146;28;20017;-37
2023/05/03 04:54:25;;;;;;;4.72;3.53;;;12.70;99.90;;;;;;5053382;28;20176;-40
2023/05/03 04:56:52;;;;;;;8.27;4.10;;;12.70;99.90;;;;;;5052518;28;20526;-40
2023/05/03 04:59:18;;;;;;;8.23;3.97;;;12.70;99.90;;;;;;5053016;28;20033;-37
2023/05/03 05:01:44;;;;;;;6.13;3.90;;;12.70;99.90;;;;;;5052901;28;20027;-39
2023/05/03 05:04:09;;;;;;;5.60;3.65;;;12.70;99.90;;;;;;5052653;28;20025;-36
2023/05/03 05:06:35;;;;;;;5.35;4.05;;;12.70;99.90;;;;;;5052185;28;20029;-40
2023/05/03 05:09:01;;;;;;;7.65;4.20;;;12.70;99.90;;;;;;5052705;28;20471;-43
2023/05/03 05:11:26;;;;;;;8.68;4.25;;;12.70;99.90;;;;;;5052728;28;20506;-40
2023/05/03 05:13:52;;;;;;;7.07;4.18;;;12.70;99.90;;;;;;5052681;28;20056;-36
2023/05/03 05:16:18;;;;;;;7.82;4.18;;;12.70;99.90;;;;;;5052015;28;20021;-39
2023/05/03 05:18:43;;;;;;;6.72;4.35;;;12.70;99.90;;;;;;5052397;28;20024;-35
2023/05/03 05:21:09;;;;;;;8.98;4.43;;;12.70;99.90;;;;;;5052633;28;20025;-42
2023/05/03 05:23:35;;;;;;;7.97;4.15;;;12.80;99.90;;;;;;5051304;28;20017;-36
2023/05/03 05:26:01;;;;;;;9.57;4.43;;;12.70;99.90;;;;;;5052030;28;20027;-40
2023/05/03 05:28:27;;;;;;;10.05;4.60;;;12.80;99.90;;;;;;5052433;28;20032;-39
2023/05/03 05:30:53;;;;;;;9.73;4.38;;;12.80;99.90;;;;;;5052259;28;20083;-42
2023/05/03 05:33:19;;;;;;;8.10;4.53;;;12.80;99.90;;;;;;5052263;28;20021;-39
2023/05/03 05:35:47;;;;;;;7.93;4.43;;;12.80;99.90;;;;;;5052053;28;20387;-43
2023/05/03 05:38:16;;;;;;;8.27;4.80;;;12.80;99.90;;;;;;5052241;28;20050;-39
2023/05/03 05:40:42;;;;;;;10.38;4.45;;;12.80;99.90;;;;;;5052180;28;20017;-35
2023/05/03 05:43:08;;;;;;;9.98;4.82;;;12.80;99.90;;;;;;5052188;28;20399;-36
2023/05/03 05:45:34;;;;;;;9.57;4.70;;;12.80;99.90;;;;;;5051953;28;20051;-39
2023/05/03 05:48:00;;;;;;;6.53;5.00;;;12.80;99.90;;;;;;5051722;28;20024;-38
2023/05/03 05:50:26;;;;;;;9.30;5.00;;;12.90;99.90;;;;;;5052185;28;20032;-38
2023/05/03 05:52:52;;;;;;;8.23;5.07;;;12.80;99.90;;;;;;5052369;28;20028;-40
2023/05/03 05:55:17;;;;;;;7.95;4.72;;;12.80;99.90;;;;;;5051866;28;20036;-42
2023/05/03 05:57:43;;;;;;;8.45;5.05;;;12.80;99.90;;;;;;5051275;28;20032;-42
2023/05/03 06:00:13;;;;;;;10.48;5.25;;;12.90;99.90;;;;;;5051834;28;20033;-41
2023/05/03 06:02:39;;;;;;;7.60;4.72;;;12.90;99.90;;;;;;5051682;28;20017;-40
2023/05/03 06:05:05;;;;;;;10.60;5.15;;;12.90;99.90;;;;;;5052011;28;20410;-40
2023/05/03 06:07:31;;;;;;;10.23;5.43;;;12.90;99.90;;;;;;5051065;28;20029;-39
2023/05/03 06:09:56;;;;;;;7.57;4.95;;;12.90;99.90;;;;;;5051552;28;20033;-37
2023/05/03 06:12:22;;;;;;;7.85;4.90;;;12.90;99.90;;;;;;5051605;28;20118;-38
2023/05/03 06:14:47;;;;;;;8.77;5.13;;;13.00;99.90;;;;;;5051603;28;20075;-38
2023/05/03 06:17:13;;;;;;;8.10;5.13;;;12.90;99.90;;;;;;5050852;28;20387;-39
2023/05/03 06:19:39;;;;;;;10.05;4.93;;;13.00;99.90;;;;;;5050136;28;20060;-40
2023/05/03 06:22:05;;;;;;;10.15;6.05;;;13.00;99.90;;;;;;5051466;28;20048;-37
2023/05/03 06:24:31;;;;;;;10.48;5.50;;;13.00;99.90;;;;;;5051524;28;20394;-41
2023/05/03 06:26:58;;;;;;;9.35;5.28;;;12.90;99.90;;;;;;5050788;28;20032;-40
2023/05/03 06:29:25;;;;;;;8.98;5.95;;;13.00;99.90;;;;;;5051024;28;20029;-43
2023/05/03 06:31:51;;;;;;;7.78;5.75;;;13.00;99.90;;;;;;5051170;28;20028;-38
2023/05/03 06:34:21;;;;;;;14.48;9.77;;;13.00;99.90;;;;;;5050807;28;20029;-43
2023/05/03 06:36:48;;;;;;;14.77;9.75;;;12.90;99.90;;;;;;5051118;28;20057;-37
2023/05/03 06:39:13;;;;;;;14.40;8.43;;;12.90;99.90;;;;;;5051252;28;20074;-39
2023/05/03 06:41:39;;;;;;;13.23;8.38;;;12.90;99.90;;;;;;5051154;28;20023;-38
2023/05/03 06:44:06;;;;;;;13.07;8.02;;;12.90;99.90;;;;;;5051002;28;20021;-41
2023/05/03 06:46:32;;;;;;;13.73;8.07;;;12.90;99.90;;;;;;5050513;28;20485;-40
2023/05/03 06:48:57;;;;;;;17.27;8.80;;;12.90;99.90;;;;;;5051155;28;20036;-40
2023/05/03 06:51:27;;;;;;;15.10;8.20;;;12.90;99.90;;;;;;5051130;28;20044;-40
2023/05/03 06:53:57;;;;;;;12.07;8.23;;;12.90;99.90;;;;;;5050376;28;20047;-40
2023/05/03 06:56:23;;;;;;;14.63;7.55;;;12.90;99.90;;;;;;5050307;28;20017;-39
2023/05/03 06:58:49;;;;;;;12.95;7.38;;;12.90;99.90;;;;;;5051309;28;20027;-40
2023/05/03 07:01:17;;;;;;;12.95;7.28;;;12.90;99.90;;;;;;5051074;28;20315;-40
2023/05/03 07:03:43;;;;;;;15.40;8.00;;;12.90;99.90;;;;;;5050744;28;20164;-41
2023/05/03 07:06:09;;;;;;;12.40;7.40;;;12.90;99.90;;;;;;5050201;28;20471;-38
2023/05/03 07:08:35;;;;;;;11.35;7.63;;;12.90;99.90;;;;;;5050808;28;20437;-39
2023/05/03 07:11:00;;;;;;;13.40;7.72;;;13.00;99.90;;;;;;5050801;28;20017;-39
2023/05/03 07:13:26;;;;;;;11.40;7.45;;;13.00;99.90;;;;;;5050719;28;20496;-39
2023/05/03 07:15:52;;;;;;;13.70;7.57;;;13.00;99.90;;;;;;5050253;28;20084;-40
2023/05/03 07:18:17;;;;;;;11.30;7.57;;;13.00;99.90;;;;;;5050613;28;20025;-36
2023/05/03 07:20:43;;;;;;;12.93;7.80;;;13.00;99.90;;;;;;5050711;28;20059;-34
2023/05/03 07:23:08;;;;;;;10.13;6.97;;;13.00;99.90;;;;;;5050671;28;20033;-40
2023/05/03 07:25:34;;;;;;;11.43;6.82;;;13.00;99.90;;;;;;5050505;28;20021;-41
2023/05/03 07:28:00;;;;;;;15.43;7.97;;;13.00;99.90;;;;;;5050189;28;20495;-43
2023/05/03 07:30:26;;;;;;;9.13;6.88;;;13.10;99.90;;;;;;5050569;28;20113;-40
2023/05/03 07:32:51;;;;;;;11.00;7.25;;;13.10;99.90;;;;;;5050826;28;20029;-38
2023/05/03 07:35:18;;;;;;;10.38;6.97;;;13.10;99.90;;;;;;5050659;28;20032;-37
2023/05/03 07:37:43;;;;;;;13.60;7.68;;;13.10;99.90;;;;;;5050040;28;20048;-40
2023/05/03 07:40:10;;;;;;;8.63;6.55;;;13.00;99.90;;;;;;5050417;28;20492;-38
2023/05/03 07:42:36;;;;;;;15.68;6.88;;;13.10;99.90;;;;;;5050461;28;20140;-39
2023/05/03 07:45:02;;;;;;;11.23;6.78;;;13.10;99.90;;;;;;5050417;28;20100;-38
2023/05/03 07:47:27;;;;;;;10.43;7.40;;;13.10;99.90;;;;;;5051933;28;20103;-38
2023/05/03 07:49:53;;;;;;;9.48;6.60;;;13.10;99.90;;;;;;5052861;28;20452;-39
2023/05/03 07:52:19;;;;;;;9.50;6.53;;;13.10;99.90;;;;;;5054211;28;20025;-40
2023/05/03 07:54:45;;;;;;;12.30;6.68;;;13.10;99.90;;;;;;5054452;28;20051;-40
2023/05/03 07:57:15;;;;;;;10.88;5.70;;;13.10;99.90;;;;;;5053948;28;20025;-40
2023/05/03 07:59:42;;;;;;;9.60;5.22;;;13.10;99.90;;;;;;5054750;28;20344;-39
2023/05/03 08:02:08;;;;;;;7.82;5.65;;;13.10;99.90;;;;;;5054498;28;20029;-40
2023/05/03 08:04:33;;;;;;;8.13;5.53;;;13.10;99.90;;;;;;5054045;28;20120;-41
2023/05/03 08:07:03;;;;;;;8.23;5.93;;;13.10;99.90;;;;;;5053456;28;20104;-40
2023/05/03 08:09:29;;;;;;;9.10;6.35;;;13.20;99.90;;;;;;5053643;28;20480;-38
2023/05/03 08:11:55;;;;;;;8.73;5.75;;;13.20;99.90;;;;;;5052491;28;20075;-40
2023/05/03 08:14:22;;;;;;;8.75;5.95;;;13.20;99.90;;;;;;5053955;28;20455;-39
2023/05/03 08:16:48;;;;;;;8.50;6.20;;;13.20;99.90;;;;;;5053233;28;20037;-40
2023/05/03 08:19:14;;;;;;;5.78;4.72;;;13.20;99.90;;;;;;5053794;28;20028;-39
2023/05/03 08:21:39;;;;;;;9.32;5.40;;;13.20;99.90;;;;;;5053635;28;20025;-38
2023/05/03 08:24:07;;;;;;;7.78;5.35;;;13.20;99.90;;;;;;5054115;28;20035;-38
2023/05/03 08:26:33;;;;;;;8.38;5.78;;;13.20;99.90;;;;;;5053194;28;20441;-41
2023/05/03 08:29:00;;;;;;;10.35;5.30;;;13.20;99.90;;;;;;5053482;28;20028;-39
2023/05/03 08:31:26;;;;;;;7.70;5.15;;;13.20;99.90;;;;;;5053620;28;20021;-40
2023/05/03 08:33:52;;;;;;;6.60;4.70;;;13.20;99.90;;;;;;5053547;28;20078;-40
2023/05/03 08:36:17;;;;;;;7.63;5.03;;;13.30;99.90;;;;;;5052939;28;20037;-40
2023/05/03 08:38:43;;;;;;;7.68;4.70;;;13.30;99.90;;;;;;5053927;28;20017;-41
2023/05/03 08:41:29;;;;;;;6.90;4.80;;;13.30;99.90;;;;;;5053560;28;20029;-42
2023/05/03 08:43:56;;;;;;;7.25;4.97;;;13.30;99.90;;;;;;5053292;28;20028;-40
2023/05/03 08:46:24;;;;;;;8.20;4.60;;;13.30;99.90;;;;;;5053067;28;20025;-40
2023/05/03 08:48:54;;;;;;;5.00;4.47;;;13.30;99.90;;;;;;5052939;28;20035;-39
2023/05/03 08:51:21;;;;;;;9.07;4.93;;;13.40;99.90;;;;;;5053279;28;20021;-43
2023/05/03 08:53:47;;;;;;;7.90;4.40;;;13.40;99.90;;;;;;5053084;28;20075;-40
2023/05/03 08:56:31;;;;;;;4.90;4.00;;;13.40;99.90;;;;;;5052431;28;20029;-43
2023/05/03 08:59:03;;;;;;;6.45;4.32;;;13.40;99.90;;;;;;5052785;28;20052;-36
2023/05/03 09:01:29;;;;;;;7.95;4.45;;;13.40;99.90;;;;;;5052977;28;20029;-41
2023/05/03 09:03:55;;;;;;;6.13;4.20;;;13.40;99.90;;;;;;5052966;28;20403;-36
2023/05/03 09:06:24;;;;;;;7.68;4.18;;;13.40;99.90;;;;;;5052381;28;20383;-42
2023/05/03 09:08:50;;;;;;;11.32;8.35;;;13.40;99.90;;;;;;5043010;28;20021;-44
2023/05/03 09:11:28;;;;;;;11.80;8.70;;;13.40;99.90;;;;;;5053401;28;20070;-43
2023/05/03 09:14:11;;;;;;;9.48;7.53;;;13.40;99.90;;;;;;5051991;28;20021;-41
2023/05/03 09:16:37;;;;;;;10.57;6.68;;;13.40;99.90;;;;;;5051527;28;20021;-43
2023/05/03 09:19:10;;;;;;;8.05;6.57;;;13.40;99.90;;;;;;5052644;28;20479;-42
2023/05/03 09:21:36;;;;;;;10.38;6.53;;;13.40;99.90;;;;;;5052595;28;20039;-43
2023/05/03 09:24:11;;;;;;;10.40;5.78;;;13.40;99.90;;;;;;5052494;28;20028;-44
2023/05/03 09:26:37;;;;;;;8.80;5.57;;;13.40;99.90;;;;;;5051944;28;20021;-45
2023/05/03 09:29:03;;;;;;;9.70;5.45;;;13.40;99.90;;;;;;5052380;28;20021;-44
2023/05/03 09:31:31;;;;;;;9.93;5.25;;;13.40;99.90;;;;;;5052348;28;20379;-44
2023/05/03 09:33:57;;;;;;;7.68;4.95;;;13.40;99.90;;;;;;5052317;28;20027;-45
2023/05/03 09:36:24;;;;;;;5.18;4.55;;;13.40;99.90;;;;;;5051716;28;20383;-43
2023/05/03 09:38:51;;;;;;;5.40;4.35;;;13.40;99.90;;;;;;5052264;28;20021;-43
2023/05/03 09:41:30;;;;;;;8.70;4.38;;;13.40;99.90;;;;;;5052166;28;20058;-43
2023/05/03 09:44:01;;;;;;;8.07;4.40;;;13.50;99.90;;;;;;5052121;28;20040;-44
2023/05/03 09:46:28;;;;;;;4.82;3.42;;;13.50;99.90;;;;;;5050109;28;20487;-43
2023/05/03 09:48:56;;;;;;;7.60;3.67;;;13.60;99.90;;;;;;5051913;28;20356;-42
2023/05/03 09:51:22;;;;;;;5.55;3.90;;;13.60;99.90;;;;;;5052360;28;20025;-45
2023/05/03 09:53:48;;;;;;;5.95;3.95;;;13.70;99.90;;;;;;5051932;28;20107;-43
2023/05/03 09:56:15;;;;;;;6.55;3.40;;;13.70;99.90;;;;;;5051260;28;20021;-43
2023/05/03 09:58:42;;;;;;;7.15;3.10;;;13.70;99.90;;;;;;5051762;28;20044;-43
2023/05/03 10:01:09;;;;;;;5.32;3.33;;;13.70;99.90;;;;;;5051710;28;20041;-46
2023/05/03 10:03:49;;;;;;;4.55;3.40;;;13.70;99.90;;;;;;5051668;28;20446;-43
2023/05/03 10:06:42;;;;;;;5.40;3.25;;;13.80;99.90;;;;;;5051116;28;20487;-43
2023/05/03 10:09:31;;;;;;;4.78;3.00;;;13.80;99.90;;;;;;5050937;28;20037;-45
2023/05/03 10:12:00;;;;;;;3.60;3.05;;;13.80;99.90;;;;;;5051655;28;20040;-43
2023/05/03 10:14:26;;;;;;;4.32;2.85;;;13.80;99.90;;;;;;5051469;28;20017;-41
2023/05/03 10:17:02;;;;;;;6.43;3.03;;;13.80;99.90;;;;;;5051037;28;20027;-44
2023/05/03 10:19:46;;;;;;;6.22;3.60;;;13.80;99.90;;;;;;5051662;28;20448;-42
2023/05/03 10:22:11;;;;;;;3.70;2.65;;;13.80;99.90;;;;;;5051556;28;20032;-42
2023/05/03 10:25:00;;;;;;;4.43;2.85;;;13.90;99.90;;;;;;5051227;28;20086;-43
2023/05/03 10:27:44;;;;;;;5.60;3.17;;;13.90;99.90;;;;;;5050768;28;20021;-43
2023/05/03 10:30:25;;;;;;;6.45;3.08;;;13.90;99.90;;;;;;5051341;28;20082;-42
2023/05/03 10:32:51;;;;;;;4.93;3.22;;;13.80;99.90;;;;;;5051204;28;20426;-43
2023/05/03 10:35:18;;;;;;;4.15;2.90;;;13.80;99.90;;;;;;5051613;28;20554;-41
2023/05/03 10:37:44;;;;;;;5.47;3.10;;;13.80;99.90;;;;;;5050591;28;20021;-43
2023/05/03 10:40:15;;;;;;;6.55;3.22;;;13.80;99.90;;;;;;5051159;28;20032;-43
2023/05/03 10:42:48;;;;;;;5.97;3.75;;;13.80;99.90;;;;;;5051178;28;20047;-42
2023/05/03 10:45:25;;;;;;;3.50;2.70;;;13.80;99.90;;;;;;5051143;28;20024;-43
2023/05/03 10:48:09;;;;;;;7.63;3.60;;;13.70;99.90;;;;;;5050540;28;20041;-43
2023/05/03 10:50:35;;;;;;;5.45;3.28;;;13.70;99.90;;;;;;5051110;28;20029;-41
2023/05/03 10:53:00;;;;;;;3.58;2.92;;;13.70;99.90;;;;;;5050095;28;20517;-42
2023/05/03 10:55:26;;;;;;;4.03;2.78;;;13.70;99.90;;;;;;5051189;28;20104;-43
2023/05/03 10:57:56;;;;;;;3.72;3.00;;;13.80;99.90;;;;;;5050330;28;20056;-44
2023/05/03 11:00:22;;;;;;;3.85;2.75;;;13.70;99.90;;;;;;5050818;28;20029;-42
2023/05/03 11:03:06;;;;;;;3.88;2.67;;;13.80;99.90;;;;;;5050711;28;20404;-43
2023/05/03 11:05:33;;;;;;;5.00;2.75;;;13.80;99.90;;;;;;5051043;28;20036;-43
2023/05/03 11:08:08;;;;;;;4.55;2.63;;;13.80;99.90;;;;;;5050248;28;20025;-42
2023/05/03 11:10:34;;;;;;;4.90;2.90;;;13.80;99.90;;;;;;5050789;28;20029;-43
2023/05/03 11:13:00;;;;;;;5.63;2.92;;;13.80;99.90;;;;;;5050726;28;20024;-41
2023/05/03 11:15:25;;;;;;;4.80;3.00;;;13.80;99.90;;;;;;5050880;28;20021;-42
2023/05/03 11:17:51;;;;;;;5.28;3.03;;;13.80;99.90;;;;;;5050366;28;20075;-44
2023/05/03 11:20:18;;;;;;;4.13;3.17;;;13.80;99.90;;;;;;5050863;28;20482;-45
2023/05/03 11:22:44;;;;;;;4.35;2.90;;;13.90;99.90;;;;;;5055316;28;20554;-42
2023/05/03 11:25:10;;;;;;;5.75;3.03;;;13.90;99.90;;;;;;5054805;28;20049;-43
2023/05/03 11:27:36;;;;;;;4.35;2.88;;;13.80;99.90;;;;;;5053842;28;20067;-44
2023/05/03 11:30:02;;;;;;;3.60;2.35;;;13.80;99.90;;;;;;5054583;28;20430;-43
2023/05/03 11:32:29;;;;;;;3.78;2.83;;;13.80;99.90;;;;;;5054717;28;20037;-43
2023/05/03 11:34:58;;;;;;;4.15;3.25;;;13.80;99.90;;;;;;5054452;28;20491;-43
2023/05/03 11:37:23;;;;;;;3.72;2.60;;;13.80;99.90;;;;;;5054020;28;20028;-43
2023/05/03 11:39:50;;;;;;;5.13;2.92;;;13.80;99.90;;;;;;5055164;28;20021;-42
2023/05/03 11:42:16;;;;;;;4.43;2.65;;;13.80;99.90;;;;;;5054325;28;20160;-44
2023/05/03 11:44:41;;;;;;;4.35;2.78;;;13.80;99.90;;;;;;5054392;28;20105;-45
2023/05/03 11:47:08;;;;;;;4.43;2.92;;;13.80;99.90;;;;;;5053971;28;20033;-45
2023/05/03 11:49:33;;;;;;;7.82;5.25;;;13.80;99.90;;;;;;5054162;28;20029;-44
2023/05/03 11:51:59;;;;;;;6.50;4.78;;;13.80;99.90;;;;;;5054228;28;20025;-45
2023/05/03 11:54:27;;;;;;;8.38;5.03;;;13.90;99.90;;;;;;5053264;28;20017;-44
2023/05/03 11:56:57;;;;;;;9.60;4.90;;;13.90;99.90;;;;;;5053565;28;20028;-43
2023/05/03 11:59:39;;;;;;;5.57;4.30;;;13.90;99.90;;;;;;5054318;28;20028;-43
2023/05/03 12:02:08;;;;;;;7.50;4.40;;;14.00;99.90;;;;;;5054355;28;20155;-44
2023/05/03 12:04:35;;;;;;;5.18;4.10;;;14.00;99.90;;;;;;5053987;28;20036;-43
2023/05/03 12:07:02;;;;;;;5.47;3.88;;;14.00;99.90;;;;;;5053373;28;20028;-41
2023/05/03 12:09:27;;;;;;;5.25;3.90;;;14.10;99.90;;;;;;5054125;28;20037;-43
2023/05/03 12:11:53;;;;;;;4.50;3.38;;;14.10;99.90;;;;;;5053860;28;20036;-43
2023/05/03 12:14:20;;;;;;;6.13;4.07;;;14.10;99.90;;;;;;5053806;28;20112;-43
2023/05/03 12:16:51;;;;;;;6.28;2.90;;;14.10;99.90;;;;;;5053126;28;20447;-44
2023/05/03 12:19:27;;;;;;;5.10;3.42;;;14.10;99.90;;;;;;5053851;28;20029;-44
2023/05/03 12:21:53;;;;;;;4.72;3.15;;;14.10;99.90;;;;;;5053949;28;20356;-44
2023/05/03 12:24:21;;;;;;;4.45;3.00;;;14.10;99.90;;;;;;5053853;28;20032;-44
2023/05/03 12:26:50;;;;;;;4.63;2.90;;;14.10;99.90;;;;;;5053055;28;20028;-42
2023/05/03 12:29:16;;;;;;;5.57;3.25;;;14.10;99.90;;;;;;5053499;28;20130;-44
2023/05/03 12:31:42;;;;;;;3.47;2.80;;;14.10;99.90;;;;;;5053582;28;20159;-42
2023/05/03 12:34:08;;;;;;;4.47;2.85;;;14.10;99.90;;;;;;5053184;28;20025;-44
2023/05/03 12:36:34;;;;;;;4.63;3.10;;;14.00;99.90;;;;;;5052806;28;20027;-42
2023/05/03 12:39:01;;;;;;;3.53;2.60;;;14.00;99.90;;;;;;5051989;28;20044;-43
2023/05/03 12:41:30;;;;;;;4.68;3.00;;;14.00;99.90;;;;;;5053586;28;20451;-42
2023/05/03 12:43:56;;;;;;;5.05;3.13;;;14.00;99.90;;;;;;5052073;28;20104;-44
2023/05/03 12:46:22;;;;;;;4.85;2.70;;;14.00;99.90;;;;;;5052753;28;20025;-42
2023/05/03 12:48:49;;;;;;;4.30;3.08;;;14.10;99.90;;;;;;5052974;28;20027;-40